Arivaca, Arizona
Current Conditions -  °F | °C
As of 12:54 AM on Friday 21 Nov 2014 (Local Time) from KOLS Reporting Station
Clear Clear  
Wind Chill:   Ceiling: Unl
Heat Index:   Visibility: 10mi
Dew Point: -8°   Wind: 5mph
Humidity: 43%   Direction: 30°NNE
Pressure: 30.03"   Gusts: NA
Location:  31.57°N, 111.33°W
Report Text: KOLS 210754Z AUTO 03004KT 10SM CLR 03/M08 A3003 RMK AO2 SLP133 T00331083
Loading
Personal Weather Stations






























Interactive Weather Map New forecast layout! Learn more

10-Day Weather Forecast

Advertisements
Track Severe Weather on mobile